sensor_id;sensor_type;location;lat;lon;timestamp;P1;durP1;ratioP1;P2;durP2;ratioP2
33270;SDS011;53180;51.344;6.152;2022-11-23T00:01:31;4.05;;;1.50;;
33270;SDS011;53180;51.344;6.152;2022-11-23T00:04:02;2.00;;;1.40;;
33270;SDS011;53180;51.344;6.152;2022-11-23T00:09:01;1.70;;;1.52;;
33270;SDS011;53180;51.344;6.152;2022-11-23T00:11:32;1.73;;;1.50;;
33270;SDS011;53180;51.344;6.152;2022-11-23T00:14:02;1.88;;;1.55;;
33270;SDS011;53180;51.344;6.152;2022-11-23T00:16:30;2.05;;;1.50;;
33270;SDS011;53180;51.344;6.152;2022-11-23T00:18:59;1.63;;;1.42;;
33270;SDS011;53180;51.344;6.152;2022-11-23T00:21:28;2.10;;;1.58;;
33270;SDS011;53180;51.344;6.152;2022-11-23T00:23:58;9.23;;;1.50;;
33270;SDS011;53180;51.344;6.152;2022-11-23T00:26:28;2.05;;;1.70;;
33270;SDS011;53180;51.344;6.152;2022-11-23T00:28:58;3.13;;;1.80;;
33270;SDS011;53180;51.344;6.152;2022-11-23T00:31:26;1.25;;;1.15;;
33270;SDS011;53180;51.344;6.152;2022-11-23T00:33:54;3.40;;;1.45;;
33270;SDS011;53180;51.344;6.152;2022-11-23T00:36:24;1.10;;;1.10;;
33270;SDS011;53180;51.344;6.152;2022-11-23T00:38:53;3.67;;;1.83;;
33270;SDS011;53180;51.344;6.152;2022-11-23T00:41:23;1.23;;;1.10;;
33270;SDS011;53180;51.344;6.152;2022-11-23T00:43:53;1.88;;;1.38;;
33270;SDS011;53180;51.344;6.152;2022-11-23T00:46:24;3.13;;;1.40;;
33270;SDS011;53180;51.344;6.152;2022-11-23T00:48:54;1.65;;;1.55;;
33270;SDS011;53180;51.344;6.152;2022-11-23T00:51:24;2.10;;;1.40;;
33270;SDS011;53180;51.344;6.152;2022-11-23T00:53:54;1.33;;;1.23;;
33270;SDS011;53180;51.344;6.152;2022-11-23T00:56:23;1.20;;;1.10;;
33270;SDS011;53180;51.344;6.152;2022-11-23T00:58:52;5.57;;;1.38;;
33270;SDS011;53180;51.344;6.152;2022-11-23T01:01:25;2.75;;;1.58;;
33270;SDS011;53180;51.344;6.152;2022-11-23T01:03:56;1.38;;;1.27;;
33270;SDS011;53180;51.344;6.152;2022-11-23T01:06:26;1.10;;;1.10;;
33270;SDS011;53180;51.344;6.152;2022-11-23T01:08:57;1.40;;;1.30;;
33270;SDS011;53180;51.344;6.152;2022-11-23T01:11:28;2.58;;;1.45;;
33270;SDS011;53180;51.344;6.152;2022-11-23T01:13:58;2.13;;;1.50;;
33270;SDS011;53180;51.344;6.152;2022-11-23T01:16:28;1.88;;;1.27;;
33270;SDS011;53180;51.344;6.152;2022-11-23T01:18:58;1.65;;;1.55;;
33270;SDS011;53180;51.344;6.152;2022-11-23T01:21:30;1.88;;;1.42;;
33270;SDS011;53180;51.344;6.152;2022-11-23T01:24:00;9.20;;;1.48;;
33270;SDS011;53180;51.344;6.152;2022-11-23T01:26:32;2.00;;;1.50;;
33270;SDS011;53180;51.344;6.152;2022-11-23T01:29:00;1.13;;;1.08;;
33270;SDS011;53180;51.344;6.152;2022-11-23T01:31:30;8.00;;;1.52;;
33270;SDS011;53180;51.344;6.152;2022-11-23T01:33:59;1.35;;;1.25;;
33270;SDS011;53180;51.344;6.152;2022-11-23T01:36:29;3.25;;;1.48;;
33270;SDS011;53180;51.344;6.152;2022-11-23T01:38:59;1.63;;;1.40;;
33270;SDS011;53180;51.344;6.152;2022-11-23T01:41:29;1.67;;;1.38;;
33270;SDS011;53180;51.344;6.152;2022-11-23T01:46:55;1.73;;;1.30;;
33270;SDS011;53180;51.344;6.152;2022-11-23T01:49:26;1.90;;;1.25;;
33270;SDS011;53180;51.344;6.152;2022-11-23T01:52:02;3.72;;;1.60;;
33270;SDS011;53180;51.344;6.152;2022-11-23T01:54:35;1.25;;;1.23;;
33270;SDS011;53180;51.344;6.152;2022-11-23T01:57:07;1.20;;;1.10;;
33270;SDS011;53180;51.344;6.152;2022-11-23T01:59:40;3.50;;;1.50;;
33270;SDS011;53180;51.344;6.152;2022-11-23T02:02:08;2.88;;;1.55;;
33270;SDS011;53180;51.344;6.152;2022-11-23T02:04:38;1.70;;;1.33;;
33270;SDS011;53180;51.344;6.152;2022-11-23T02:07:08;1.85;;;1.42;;
33270;SDS011;53180;51.344;6.152;2022-11-23T02:09:37;1.40;;;1.25;;
33270;SDS011;53180;51.344;6.152;2022-11-23T02:12:08;2.05;;;1.30;;
33270;SDS011;53180;51.344;6.152;2022-11-23T02:14:38;1.58;;;1.30;;
33270;SDS011;53180;51.344;6.152;2022-11-23T02:17:08;2.17;;;1.30;;
33270;SDS011;53180;51.344;6.152;2022-11-23T02:19:38;2.60;;;1.27;;
33270;SDS011;53180;51.344;6.152;2022-11-23T02:22:16;1.55;;;1.40;;
33270;SDS011;53180;51.344;6.152;2022-11-23T02:24:52;3.25;;;1.20;;
33270;SDS011;53180;51.344;6.152;2022-11-23T02:27:23;1.40;;;1.30;;
33270;SDS011;53180;51.344;6.152;2022-11-23T02:29:53;1.48;;;1.15;;
33270;SDS011;53180;51.344;6.152;2022-11-23T02:32:23;4.18;;;1.58;;
33270;SDS011;53180;51.344;6.152;2022-11-23T02:34:52;2.08;;;1.50;;
33270;SDS011;53180;51.344;6.152;2022-11-23T02:37:20;1.50;;;1.40;;
33270;SDS011;53180;51.344;6.152;2022-11-23T02:39:49;5.07;;;1.60;;
33270;SDS011;53180;51.344;6.152;2022-11-23T02:42:18;4.38;;;1.23;;
33270;SDS011;53180;51.344;6.152;2022-11-23T02:44:50;1.70;;;1.25;;
33270;SDS011;53180;51.344;6.152;2022-11-23T02:47:24;4.00;;;1.30;;
33270;SDS011;53180;51.344;6.152;2022-11-23T02:49:53;1.45;;;1.33;;
33270;SDS011;53180;51.344;6.152;2022-11-23T02:52:21;2.35;;;1.40;;
33270;SDS011;53180;51.344;6.152;2022-11-23T02:54:49;1.92;;;1.50;;
33270;SDS011;53180;51.344;6.152;2022-11-23T02:57:17;5.85;;;1.42;;
33270;SDS011;53180;51.344;6.152;2022-11-23T02:59:46;1.67;;;1.38;;
33270;SDS011;53180;51.344;6.152;2022-11-23T03:02:15;2.42;;;1.35;;
33270;SDS011;53180;51.344;6.152;2022-11-23T03:04:44;2.58;;;1.33;;
33270;SDS011;53180;51.344;6.152;2022-11-23T03:07:12;7.97;;;1.58;;
33270;SDS011;53180;51.344;6.152;2022-11-23T03:09:40;3.67;;;1.40;;
33270;SDS011;53180;51.344;6.152;2022-11-23T03:12:08;3.85;;;1.40;;
33270;SDS011;53180;51.344;6.152;2022-11-23T03:14:37;5.97;;;1.52;;
33270;SDS011;53180;51.344;6.152;2022-11-23T03:17:05;1.52;;;1.40;;
33270;SDS011;53180;51.344;6.152;2022-11-23T03:19:35;3.25;;;1.52;;
33270;SDS011;53180;51.344;6.152;2022-11-23T03:22:03;2.65;;;1.42;;
33270;SDS011;53180;51.344;6.152;2022-11-23T03:24:31;2.53;;;1.35;;
33270;SDS011;53180;51.344;6.152;2022-11-23T03:27:00;2.25;;;1.60;;
33270;SDS011;53180;51.344;6.152;2022-11-23T03:29:28;1.88;;;1.55;;
33270;SDS011;53180;51.344;6.152;2022-11-23T03:31:57;1.52;;;1.42;;
33270;SDS011;53180;51.344;6.152;2022-11-23T03:34:25;3.58;;;1.70;;
33270;SDS011;53180;51.344;6.152;2022-11-23T03:36:55;2.17;;;1.60;;
33270;SDS011;53180;51.344;6.152;2022-11-23T03:39:23;2.70;;;1.45;;
33270;SDS011;53180;51.344;6.152;2022-11-23T03:41:51;4.63;;;1.60;;
33270;SDS011;53180;51.344;6.152;2022-11-23T03:44:20;3.17;;;1.50;;
33270;SDS011;53180;51.344;6.152;2022-11-23T03:46:48;2.78;;;1.52;;
33270;SDS011;53180;51.344;6.152;2022-11-23T03:49:16;5.43;;;1.92;;
33270;SDS011;53180;51.344;6.152;2022-11-23T03:51:45;3.75;;;1.60;;
33270;SDS011;53180;51.344;6.152;2022-11-23T03:54:14;4.13;;;1.75;;
33270;SDS011;53180;51.344;6.152;2022-11-23T03:56:43;2.85;;;1.75;;
33270;SDS011;53180;51.344;6.152;2022-11-23T03:59:11;2.00;;;1.30;;
33270;SDS011;53180;51.344;6.152;2022-11-23T04:01:39;1.52;;;1.40;;
33270;SDS011;53180;51.344;6.152;2022-11-23T04:04:08;2.17;;;1.60;;
33270;SDS011;53180;51.344;6.152;2022-11-23T04:06:36;3.15;;;1.63;;
33270;SDS011;53180;51.344;6.152;2022-11-23T04:09:04;4.35;;;1.90;;
33270;SDS011;53180;51.344;6.152;2022-11-23T04:11:34;3.08;;;1.75;;
33270;SDS011;53180;51.344;6.152;2022-11-23T04:14:02;2.92;;;1.85;;
33270;SDS011;53180;51.344;6.152;2022-11-23T04:16:31;4.47;;;1.30;;
33270;SDS011;53180;51.344;6.152;2022-11-23T04:18:59;1.83;;;1.60;;
33270;SDS011;53180;51.344;6.152;2022-11-23T04:21:27;3.45;;;1.67;;
33270;SDS011;53180;51.344;6.152;2022-11-23T04:23:55;3.53;;;1.63;;
33270;SDS011;53180;51.344;6.152;2022-11-23T04:26:24;9.30;;;1.70;;
33270;SDS011;53180;51.344;6.152;2022-11-23T04:28:54;3.03;;;1.60;;
33270;SDS011;53180;51.344;6.152;2022-11-23T04:31:22;3.00;;;1.55;;
33270;SDS011;53180;51.344;6.152;2022-11-23T04:33:50;4.40;;;1.40;;
33270;SDS011;53180;51.344;6.152;2022-11-23T04:36:18;3.97;;;1.63;;
33270;SDS011;53180;51.344;6.152;2022-11-23T04:38:47;5.90;;;1.67;;
33270;SDS011;53180;51.344;6.152;2022-11-23T04:41:15;1.85;;;1.48;;
33270;SDS011;53180;51.344;6.152;2022-11-23T04:43:43;3.22;;;1.38;;
33270;SDS011;53180;51.344;6.152;2022-11-23T04:46:15;4.38;;;1.40;;
33270;SDS011;53180;51.344;6.152;2022-11-23T04:48:44;3.97;;;1.70;;
33270;SDS011;53180;51.344;6.152;2022-11-23T04:51:13;2.40;;;1.63;;
33270;SDS011;53180;51.344;6.152;2022-11-23T04:53:41;6.35;;;1.90;;
33270;SDS011;53180;51.344;6.152;2022-11-23T04:56:09;4.85;;;1.58;;
33270;SDS011;53180;51.344;6.152;2022-11-23T04:58:38;4.32;;;1.50;;
33270;SDS011;53180;51.344;6.152;2022-11-23T05:01:06;2.10;;;1.77;;
33270;SDS011;53180;51.344;6.152;2022-11-23T05:03:36;3.20;;;1.60;;
33270;SDS011;53180;51.344;6.152;2022-11-23T05:06:05;2.38;;;1.77;;
33270;SDS011;53180;51.344;6.152;2022-11-23T05:08:34;3.63;;;1.50;;
33270;SDS011;53180;51.344;6.152;2022-11-23T05:11:03;4.63;;;2.03;;
33270;SDS011;53180;51.344;6.152;2022-11-23T05:13:32;3.15;;;1.55;;
33270;SDS011;53180;51.344;6.152;2022-11-23T05:16:00;5.15;;;1.50;;
33270;SDS011;53180;51.344;6.152;2022-11-23T05:18:29;2.20;;;1.50;;
33270;SDS011;53180;51.344;6.152;2022-11-23T05:20:58;7.53;;;2.08;;
33270;SDS011;53180;51.344;6.152;2022-11-23T05:23:27;2.63;;;1.50;;
33270;SDS011;53180;51.344;6.152;2022-11-23T05:25:55;4.43;;;1.80;;
33270;SDS011;53180;51.344;6.152;2022-11-23T05:28:23;5.88;;;1.60;;
33270;SDS011;53180;51.344;6.152;2022-11-23T05:31:07;3.08;;;1.63;;
33270;SDS011;53180;51.344;6.152;2022-11-23T05:33:36;1.45;;;1.35;;
33270;SDS011;53180;51.344;6.152;2022-11-23T05:36:07;4.18;;;1.50;;
33270;SDS011;53180;51.344;6.152;2022-11-23T05:38:39;2.70;;;1.50;;
33270;SDS011;53180;51.344;6.152;2022-11-23T05:41:07;8.02;;;2.10;;
33270;SDS011;53180;51.344;6.152;2022-11-23T05:43:36;4.18;;;1.90;;
33270;SDS011;53180;51.344;6.152;2022-11-23T05:46:04;3.10;;;1.60;;
33270;SDS011;53180;51.344;6.152;2022-11-23T05:48:33;1.67;;;1.48;;
33270;SDS011;53180;51.344;6.152;2022-11-23T05:51:01;7.45;;;1.75;;
33270;SDS011;53180;51.344;6.152;2022-11-23T05:53:32;5.95;;;1.90;;
33270;SDS011;53180;51.344;6.152;2022-11-23T05:56:00;5.80;;;1.23;;
33270;SDS011;53180;51.344;6.152;2022-11-23T05:58:29;3.22;;;1.40;;
33270;SDS011;53180;51.344;6.152;2022-11-23T06:00:58;4.13;;;1.80;;
33270;SDS011;53180;51.344;6.152;2022-11-23T06:03:27;2.72;;;1.40;;
33270;SDS011;53180;51.344;6.152;2022-11-23T06:05:55;4.45;;;1.42;;
33270;SDS011;53180;51.344;6.152;2022-11-23T06:08:23;3.90;;;1.67;;
33270;SDS011;53180;51.344;6.152;2022-11-23T06:10:53;6.38;;;1.42;;
33270;SDS011;53180;51.344;6.152;2022-11-23T06:13:21;3.88;;;1.70;;
33270;SDS011;53180;51.344;6.152;2022-11-23T06:15:50;2.53;;;1.60;;
33270;SDS011;53180;51.344;6.152;2022-11-23T06:18:18;9.02;;;1.73;;
33270;SDS011;53180;51.344;6.152;2022-11-23T06:20:46;2.55;;;1.50;;
33270;SDS011;53180;51.344;6.152;2022-11-23T06:23:15;8.68;;;1.80;;
33270;SDS011;53180;51.344;6.152;2022-11-23T06:25:43;7.47;;;1.60;;
33270;SDS011;53180;51.344;6.152;2022-11-23T06:28:13;1.98;;;1.65;;
33270;SDS011;53180;51.344;6.152;2022-11-23T06:30:41;1.70;;;1.60;;
33270;SDS011;53180;51.344;6.152;2022-11-23T06:33:09;2.92;;;1.58;;
33270;SDS011;53180;51.344;6.152;2022-11-23T06:35:38;3.33;;;1.73;;
33270;SDS011;53180;51.344;6.152;2022-11-23T06:38:06;6.95;;;1.70;;
33270;SDS011;53180;51.344;6.152;2022-11-23T06:40:34;1.60;;;1.50;;
33270;SDS011;53180;51.344;6.152;2022-11-23T06:43:02;12.52;;;1.70;;
33270;SDS011;53180;51.344;6.152;2022-11-23T06:45:32;6.63;;;1.88;;
33270;SDS011;53180;51.344;6.152;2022-11-23T06:48:00;1.70;;;1.50;;
33270;SDS011;53180;51.344;6.152;2022-11-23T06:50:29;3.53;;;1.80;;
33270;SDS011;53180;51.344;6.152;2022-11-23T06:52:57;2.83;;;1.73;;
33270;SDS011;53180;51.344;6.152;2022-11-23T06:55:25;3.25;;;1.60;;
33270;SDS011;53180;51.344;6.152;2022-11-23T06:57:55;2.40;;;1.50;;
33270;SDS011;53180;51.344;6.152;2022-11-23T07:00:24;10.10;;;1.83;;
33270;SDS011;53180;51.344;6.152;2022-11-23T07:02:54;2.17;;;1.40;;
33270;SDS011;53180;51.344;6.152;2022-11-23T07:05:22;3.05;;;1.60;;
33270;SDS011;53180;51.344;6.152;2022-11-23T07:07:51;2.28;;;1.52;;
33270;SDS011;53180;51.344;6.152;2022-11-23T07:10:20;3.22;;;1.45;;
33270;SDS011;53180;51.344;6.152;2022-11-23T07:12:48;1.35;;;1.25;;
33270;SDS011;53180;51.344;6.152;2022-11-23T07:15:16;1.88;;;1.27;;
33270;SDS011;53180;51.344;6.152;2022-11-23T07:17:45;2.10;;;1.50;;
33270;SDS011;53180;51.344;6.152;2022-11-23T07:20:15;4.20;;;1.75;;
33270;SDS011;53180;51.344;6.152;2022-11-23T07:22:43;1.38;;;1.27;;
33270;SDS011;53180;51.344;6.152;2022-11-23T07:25:12;8.80;;;1.88;;
33270;SDS011;53180;51.344;6.152;2022-11-23T07:27:43;1.63;;;1.52;;
33270;SDS011;53180;51.344;6.152;2022-11-23T07:30:12;7.50;;;1.73;;
33270;SDS011;53180;51.344;6.152;2022-11-23T07:32:41;4.80;;;1.40;;
33270;SDS011;53180;51.344;6.152;2022-11-23T07:35:09;1.35;;;1.25;;
33270;SDS011;53180;51.344;6.152;2022-11-23T07:37:40;3.28;;;1.65;;
33270;SDS011;53180;51.344;6.152;2022-11-23T07:40:08;3.92;;;1.73;;
33270;SDS011;53180;51.344;6.152;2022-11-23T07:42:37;8.07;;;1.50;;
33270;SDS011;53180;51.344;6.152;2022-11-23T07:45:10;2.47;;;1.45;;
33270;SDS011;53180;51.344;6.152;2022-11-23T07:47:39;4.65;;;1.35;;
33270;SDS011;53180;51.344;6.152;2022-11-23T07:50:08;7.68;;;1.83;;
33270;SDS011;53180;51.344;6.152;2022-11-23T07:52:40;1.83;;;1.42;;
33270;SDS011;53180;51.344;6.152;2022-11-23T07:55:08;2.95;;;1.38;;
33270;SDS011;53180;51.344;6.152;2022-11-23T07:57:37;6.07;;;1.38;;
33270;SDS011;53180;51.344;6.152;2022-11-23T08:00:06;1.52;;;1.27;;
33270;SDS011;53180;51.344;6.152;2022-11-23T08:02:36;7.75;;;2.05;;
33270;SDS011;53180;51.344;6.152;2022-11-23T08:05:23;1.88;;;1.50;;
33270;SDS011;53180;51.344;6.152;2022-11-23T08:07:57;3.53;;;1.75;;
33270;SDS011;53180;51.344;6.152;2022-11-23T08:10:26;3.03;;;1.30;;
33270;SDS011;53180;51.344;6.152;2022-11-23T08:12:55;2.55;;;1.45;;
33270;SDS011;53180;51.344;6.152;2022-11-23T08:15:24;2.08;;;1.33;;
33270;SDS011;53180;51.344;6.152;2022-11-23T08:17:54;2.42;;;1.42;;
33270;SDS011;53180;51.344;6.152;2022-11-23T08:20:23;3.47;;;1.40;;
33270;SDS011;53180;51.344;6.152;2022-11-23T08:22:51;1.67;;;1.13;;
33270;SDS011;53180;51.344;6.152;2022-11-23T08:25:22;3.75;;;1.10;;
33270;SDS011;53180;51.344;6.152;2022-11-23T08:27:55;11.95;;;1.60;;
33270;SDS011;53180;51.344;6.152;2022-11-23T08:30:24;3.25;;;1.42;;
33270;SDS011;53180;51.344;6.152;2022-11-23T08:32:53;3.03;;;1.27;;
33270;SDS011;53180;51.344;6.152;2022-11-23T08:35:22;1.60;;;1.17;;
33270;SDS011;53180;51.344;6.152;2022-11-23T08:37:51;1.25;;;1.17;;
33270;SDS011;53180;51.344;6.152;2022-11-23T08:40:19;5.30;;;1.20;;
33270;SDS011;53180;51.344;6.152;2022-11-23T08:42:52;3.60;;;1.10;;
33270;SDS011;53180;51.344;6.152;2022-11-23T08:45:21;6.57;;;1.37;;
33270;SDS011;53180;51.344;6.152;2022-11-23T08:47:49;2.65;;;1.23;;
33270;SDS011;53180;51.344;6.152;2022-11-23T08:50:18;1.33;;;1.10;;
33270;SDS011;53180;51.344;6.152;2022-11-23T08:52:52;3.33;;;1.17;;
33270;SDS011;53180;51.344;6.152;2022-11-23T08:55:22;1.23;;;1.02;;
33270;SDS011;53180;51.344;6.152;2022-11-23T08:57:54;4.82;;;1.25;;
33270;SDS011;53180;51.344;6.152;2022-11-23T09:00:23;2.15;;;1.30;;
33270;SDS011;53180;51.344;6.152;2022-11-23T09:02:52;2.00;;;0.90;;
33270;SDS011;53180;51.344;6.152;2022-11-23T09:05:20;3.40;;;1.50;;
33270;SDS011;53180;51.344;6.152;2022-11-23T09:07:48;3.95;;;1.40;;
33270;SDS011;53180;51.344;6.152;2022-11-23T09:10:17;1.77;;;1.23;;
33270;SDS011;53180;51.344;6.152;2022-11-23T09:12:46;3.55;;;1.20;;
33270;SDS011;53180;51.344;6.152;2022-11-23T09:15:16;7.18;;;1.45;;
33270;SDS011;53180;51.344;6.152;2022-11-23T09:17:44;2.97;;;1.13;;
33270;SDS011;53180;51.344;6.152;2022-11-23T09:20:13;1.38;;;1.10;;
33270;SDS011;53180;51.344;6.152;2022-11-23T09:22:42;11.98;;;1.85;;
33270;SDS011;53180;51.344;6.152;2022-11-23T09:25:10;1.88;;;1.15;;
33270;SDS011;53180;51.344;6.152;2022-11-23T09:27:38;2.47;;;1.40;;
33270;SDS011;53180;51.344;6.152;2022-11-23T09:30:07;3.78;;;1.33;;
33270;SDS011;53180;51.344;6.152;2022-11-23T09:32:39;2.00;;;1.30;;
33270;SDS011;53180;51.344;6.152;2022-11-23T09:35:07;11.70;;;1.35;;
33270;SDS011;53180;51.344;6.152;2022-11-23T09:37:36;2.95;;;1.13;;
33270;SDS011;53180;51.344;6.152;2022-11-23T09:40:05;2.15;;;1.00;;
33270;SDS011;53180;51.344;6.152;2022-11-23T09:42:40;1.95;;;1.27;;
33270;SDS011;53180;51.344;6.152;2022-11-23T09:45:21;1.70;;;1.08;;
33270;SDS011;53180;51.344;6.152;2022-11-23T09:51:08;0.95;;;0.85;;
33270;SDS011;53180;51.344;6.152;2022-11-23T09:53:43;1.23;;;1.13;;
33270;SDS011;53180;51.344;6.152;2022-11-23T09:56:16;1.80;;;0.93;;
33270;SDS011;53180;51.344;6.152;2022-11-23T09:58:48;1.02;;;0.82;;
33270;SDS011;53180;51.344;6.152;2022-11-23T10:01:21;3.55;;;1.38;;
33270;SDS011;53180;51.344;6.152;2022-11-23T10:03:51;4.00;;;1.30;;
33270;SDS011;53180;51.344;6.152;2022-11-23T10:06:20;3.13;;;1.38;;
33270;SDS011;53180;51.344;6.152;2022-11-23T10:08:56;2.25;;;1.05;;
33270;SDS011;53180;51.344;6.152;2022-11-23T10:14:48;2.90;;;1.48;;
33270;SDS011;53180;51.344;6.152;2022-11-23T10:17:28;9.30;;;1.10;;
33270;SDS011;53180;51.344;6.152;2022-11-23T10:20:33;1.25;;;0.90;;
33270;SDS011;53180;51.344;6.152;2022-11-23T10:23:16;2.45;;;1.25;;
33270;SDS011;53180;51.344;6.152;2022-11-23T10:26:09;6.35;;;0.77;;
33270;SDS011;53180;51.344;6.152;2022-11-23T10:28:42;1.05;;;0.80;;
33270;SDS011;53180;51.344;6.152;2022-11-23T10:31:12;8.20;;;1.00;;
33270;SDS011;53180;51.344;6.152;2022-11-23T10:36:21;1.35;;;1.08;;
33270;SDS011;53180;51.344;6.152;2022-11-23T10:38:50;2.08;;;0.93;;
33270;SDS011;53180;51.344;6.152;2022-11-23T10:41:24;1.55;;;0.90;;
33270;SDS011;53180;51.344;6.152;2022-11-23T10:43:55;2.15;;;1.10;;
33270;SDS011;53180;51.344;6.152;2022-11-23T10:46:36;0.90;;;0.70;;
33270;SDS011;53180;51.344;6.152;2022-11-23T10:49:14;4.43;;;1.00;;
33270;SDS011;53180;51.344;6.152;2022-11-23T10:51:50;5.30;;;1.17;;
33270;SDS011;53180;51.344;6.152;2022-11-23T10:54:22;2.15;;;0.98;;
33270;SDS011;53180;51.344;6.152;2022-11-23T10:56:54;0.68;;;0.60;;
33270;SDS011;53180;51.344;6.152;2022-11-23T10:59:28;3.28;;;0.90;;
33270;SDS011;53180;51.344;6.152;2022-11-23T11:02:16;0.60;;;0.60;;
33270;SDS011;53180;51.344;6.152;2022-11-23T11:04:47;2.15;;;0.68;;
33270;SDS011;53180;51.344;6.152;2022-11-23T11:07:26;4.15;;;0.98;;
33270;SDS011;53180;51.344;6.152;2022-11-23T11:09:57;1.15;;;0.77;;
33270;SDS011;53180;51.344;6.152;2022-11-23T11:12:28;2.78;;;0.90;;
33270;SDS011;53180;51.344;6.152;2022-11-23T11:15:02;1.15;;;0.60;;
33270;SDS011;53180;51.344;6.152;2022-11-23T11:17:42;2.15;;;0.77;;
33270;SDS011;53180;51.344;6.152;2022-11-23T11:20:23;3.97;;;1.00;;
33270;SDS011;53180;51.344;6.152;2022-11-23T11:22:59;2.17;;;1.05;;
33270;SDS011;53180;51.344;6.152;2022-11-23T11:25:31;2.55;;;1.13;;
33270;SDS011;53180;51.344;6.152;2022-11-23T11:28:03;1.92;;;0.90;;
33270;SDS011;53180;51.344;6.152;2022-11-23T11:30:44;1.40;;;0.90;;
33270;SDS011;53180;51.344;6.152;2022-11-23T11:33:21;1.52;;;0.70;;
33270;SDS011;53180;51.344;6.152;2022-11-23T11:36:01;3.33;;;0.65;;
33270;SDS011;53180;51.344;6.152;2022-11-23T11:38:34;0.88;;;0.80;;
33270;SDS011;53180;51.344;6.152;2022-11-23T11:41:05;1.77;;;0.60;;
33270;SDS011;53180;51.344;6.152;2022-11-23T11:43:36;1.20;;;0.80;;
33270;SDS011;53180;51.344;6.152;2022-11-23T11:46:11;0.73;;;0.73;;
33270;SDS011;53180;51.344;6.152;2022-11-23T11:48:58;1.10;;;0.50;;
33270;SDS011;53180;51.344;6.152;2022-11-23T11:51:33;1.15;;;0.73;;
33270;SDS011;53180;51.344;6.152;2022-11-23T11:54:10;0.60;;;0.60;;
33270;SDS011;53180;51.344;6.152;2022-11-23T11:56:45;1.58;;;0.70;;
33270;SDS011;53180;51.344;6.152;2022-11-23T11:59:18;5.50;;;0.95;;
33270;SDS011;53180;51.344;6.152;2022-11-23T12:01:55;0.93;;;0.80;;
33270;SDS011;53180;51.344;6.152;2022-11-23T12:04:36;2.20;;;0.88;;
33270;SDS011;53180;51.344;6.152;2022-11-23T12:07:11;2.15;;;0.82;;
33270;SDS011;53180;51.344;6.152;2022-11-23T12:09:47;0.80;;;0.80;;
33270;SDS011;53180;51.344;6.152;2022-11-23T12:12:19;0.98;;;0.90;;
33270;SDS011;53180;51.344;6.152;2022-11-23T12:14:55;2.60;;;1.00;;
33270;SDS011;53180;51.344;6.152;2022-11-23T12:17:31;2.10;;;0.80;;
33270;SDS011;53180;51.344;6.152;2022-11-23T12:20:43;2.40;;;0.93;;
33270;SDS011;53180;51.344;6.152;2022-11-23T12:23:21;2.63;;;0.80;;
33270;SDS011;53180;51.344;6.152;2022-11-23T12:26:16;3.83;;;0.70;;
33270;SDS011;53180;51.344;6.152;2022-11-23T12:28:55;3.85;;;0.82;;
33270;SDS011;53180;51.344;6.152;2022-11-23T12:31:54;6.00;;;0.82;;
33270;SDS011;53180;51.344;6.152;2022-11-23T12:34:41;0.85;;;0.85;;
33270;SDS011;53180;51.344;6.152;2022-11-23T12:37:27;1.88;;;0.73;;
33270;SDS011;53180;51.344;6.152;2022-11-23T12:43:18;0.95;;;0.68;;
33270;SDS011;53180;51.344;6.152;2022-11-23T12:48:48;1.00;;;0.77;;
33270;SDS011;53180;51.344;6.152;2022-11-23T12:54:16;3.50;;;0.90;;
33270;SDS011;53180;51.344;6.152;2022-11-23T12:57:01;0.98;;;0.80;;
33270;SDS011;53180;51.344;6.152;2022-11-23T12:59:45;1.30;;;0.80;;
33270;SDS011;53180;51.344;6.152;2022-11-23T13:02:33;0.98;;;0.88;;
33270;SDS011;53180;51.344;6.152;2022-11-23T13:05:54;9.18;;;0.98;;
33270;SDS011;53180;51.344;6.152;2022-11-23T13:12:45;1.30;;;0.88;;
33270;SDS011;53180;51.344;6.152;2022-11-23T13:15:32;0.82;;;0.80;;
33270;SDS011;53180;51.344;6.152;2022-11-23T13:18:35;1.00;;;0.90;;
33270;SDS011;53180;51.344;6.152;2022-11-23T13:21:21;1.20;;;0.93;;
33270;SDS011;53180;51.344;6.152;2022-11-23T13:23:55;1.08;;;0.88;;
33270;SDS011;53180;51.344;6.152;2022-11-23T13:26:24;0.90;;;0.80;;
33270;SDS011;53180;51.344;6.152;2022-11-23T13:28:55;2.53;;;1.00;;
33270;SDS011;53180;51.344;6.152;2022-11-23T13:31:27;0.70;;;0.70;;
33270;SDS011;53180;51.344;6.152;2022-11-23T13:33:58;2.83;;;0.90;;
33270;SDS011;53180;51.344;6.152;2022-11-23T13:36:40;2.17;;;0.93;;
33270;SDS011;53180;51.344;6.152;2022-11-23T13:42:30;0.80;;;0.80;;
33270;SDS011;53180;51.344;6.152;2022-11-23T13:51:21;1.98;;;1.00;;
33270;SDS011;53180;51.344;6.152;2022-11-23T13:53:52;2.67;;;1.08;;
33270;SDS011;53180;51.344;6.152;2022-11-23T13:56:27;1.50;;;0.98;;
33270;SDS011;53180;51.344;6.152;2022-11-23T13:59:18;1.17;;;1.02;;
33270;SDS011;53180;51.344;6.152;2022-11-23T14:08:22;0.75;;;0.75;;
33270;SDS011;53180;51.344;6.152;2022-11-23T14:10:51;2.08;;;0.98;;
33270;SDS011;53180;51.344;6.152;2022-11-23T14:13:22;0.82;;;0.80;;
33270;SDS011;53180;51.344;6.152;2022-11-23T14:15:54;1.10;;;0.98;;
33270;SDS011;53180;51.344;6.152;2022-11-23T14:18:45;1.58;;;0.98;;
33270;SDS011;53180;51.344;6.152;2022-11-23T14:21:35;1.33;;;1.00;;
33270;SDS011;53180;51.344;6.152;2022-11-23T14:24:30;1.95;;;1.13;;
33270;SDS011;53180;51.344;6.152;2022-11-23T14:27:28;4.00;;;1.00;;
33270;SDS011;53180;51.344;6.152;2022-11-23T14:30:17;0.93;;;0.80;;
33270;SDS011;53180;51.344;6.152;2022-11-23T14:32:57;1.52;;;1.10;;
33270;SDS011;53180;51.344;6.152;2022-11-23T14:35:57;1.17;;;1.08;;
33270;SDS011;53180;51.344;6.152;2022-11-23T14:42:09;1.42;;;0.93;;
33270;SDS011;53180;51.344;6.152;2022-11-23T14:44:41;1.10;;;0.90;;
33270;SDS011;53180;51.344;6.152;2022-11-23T14:47:11;2.20;;;1.10;;
33270;SDS011;53180;51.344;6.152;2022-11-23T14:49:47;3.42;;;1.38;;
33270;SDS011;53180;51.344;6.152;2022-11-23T14:52:17;1.55;;;1.08;;
33270;SDS011;53180;51.344;6.152;2022-11-23T14:54:50;1.27;;;1.13;;
33270;SDS011;53180;51.344;6.152;2022-11-23T14:57:21;1.95;;;0.98;;
33270;SDS011;53180;51.344;6.152;2022-11-23T14:59:53;1.08;;;0.98;;
33270;SDS011;53180;51.344;6.152;2022-11-23T15:02:28;2.47;;;1.35;;
33270;SDS011;53180;51.344;6.152;2022-11-23T15:05:06;1.90;;;1.40;;
33270;SDS011;53180;51.344;6.152;2022-11-23T15:07:42;4.90;;;1.40;;
33270;SDS011;53180;51.344;6.152;2022-11-23T15:10:21;1.10;;;1.10;;
33270;SDS011;53180;51.344;6.152;2022-11-23T15:13:00;3.60;;;1.55;;
33270;SDS011;53180;51.344;6.152;2022-11-23T15:15:29;4.07;;;1.42;;
33270;SDS011;53180;51.344;6.152;2022-11-23T15:18:03;1.48;;;1.30;;
33270;SDS011;53180;51.344;6.152;2022-11-23T15:20:31;1.58;;;1.40;;
33270;SDS011;53180;51.344;6.152;2022-11-23T15:23:02;1.70;;;1.40;;
33270;SDS011;53180;51.344;6.152;2022-11-23T15:25:32;1.80;;;1.60;;
33270;SDS011;53180;51.344;6.152;2022-11-23T15:28:01;1.80;;;1.60;;
33270;SDS011;53180;51.344;6.152;2022-11-23T15:30:30;2.08;;;1.70;;
33270;SDS011;53180;51.344;6.152;2022-11-23T15:32:59;1.73;;;1.42;;
33270;SDS011;53180;51.344;6.152;2022-11-23T15:35:31;1.98;;;1.55;;
33270;SDS011;53180;51.344;6.152;2022-11-23T15:38:02;2.15;;;1.92;;
33270;SDS011;53180;51.344;6.152;2022-11-23T15:40:35;1.67;;;1.58;;
33270;SDS011;53180;51.344;6.152;2022-11-23T15:43:10;3.70;;;2.17;;
33270;SDS011;53180;51.344;6.152;2022-11-23T15:48:29;4.28;;;1.98;;
33270;SDS011;53180;51.344;6.152;2022-11-23T15:51:00;4.15;;;2.00;;
33270;SDS011;53180;51.344;6.152;2022-11-23T15:53:31;1.95;;;1.83;;
33270;SDS011;53180;51.344;6.152;2022-11-23T15:56:20;1.75;;;1.50;;
33270;SDS011;53180;51.344;6.152;2022-11-23T15:58:52;1.52;;;1.42;;
33270;SDS011;53180;51.344;6.152;2022-11-23T16:01:21;2.47;;;1.55;;
33270;SDS011;53180;51.344;6.152;2022-11-23T16:03:50;1.70;;;1.60;;
33270;SDS011;53180;51.344;6.152;2022-11-23T16:06:27;4.10;;;1.70;;
33270;SDS011;53180;51.344;6.152;2022-11-23T16:09:03;3.35;;;1.73;;